Time;durP1;ratioP1;P1;durP2;ratioP2;P2;SDS_P1;SDS_P2;PMS_P1;PMS_P2;Temp;Humidity;BMP_temperature;BMP_pressure;BME280_temperature;BME280_humidity;BME280_pressure;Samples;Min_cycle;Max_cycle;Signal;HPM_P1;HPM_P2
2023/10/24 00:02:06;;;;;;;;;12.00;11.00;;;;;15.79;100.00;100273.72;4975644;28;45324;-64
2023/10/24 00:04:32;;;;;;;;;8.00;8.00;;;;;15.81;100.00;100279.03;4974803;28;65222;-65
2023/10/24 00:06:57;;;;;;;;;7.00;6.67;;;;;15.81;100.00;100277.22;4973822;28;45422;-66
2023/10/24 00:09:22;;;;;;;;;9.33;6.00;;;;;15.81;100.00;100271.03;4974807;28;68304;-65
2023/10/24 00:11:48;;;;;;;;;8.00;5.00;;;;;15.85;100.00;100278.06;4977433;28;68487;-65
2023/10/24 00:14:13;;;;;;;;;6.67;6.67;;;;;15.85;100.00;100265.63;4978282;28;63536;-66
2023/10/24 00:16:38;;;;;;;;;7.00;7.00;;;;;15.86;100.00;100266.50;4978906;28;45433;-65
2023/10/24 00:19:04;;;;;;;;;8.00;7.00;;;;;15.86;100.00;100250.53;4978169;28;65535;-67
2023/10/24 00:21:29;;;;;;;;;7.67;7.33;;;;;15.86;100.00;100253.19;4978219;28;46924;-65
2023/10/24 00:23:54;;;;;;;;;7.00;7.00;;;;;15.89;100.00;100254.00;4977879;28;55701;-65
2023/10/24 00:26:20;;;;;;;;;6.67;6.67;;;;;15.88;100.00;100246.06;4978869;28;45521;-65
2023/10/24 00:28:45;;;;;;;;;7.67;7.33;;;;;15.89;100.00;100253.13;4977769;28;68692;-66
2023/10/24 00:31:10;;;;;;;;;4.00;4.00;;;;;15.87;100.00;100257.59;4978019;28;70701;-66
2023/10/24 00:33:36;;;;;;;;;8.33;7.67;;;;;15.87;100.00;100246.94;4978511;28;49138;-64
2023/10/24 00:36:01;;;;;;;;;7.67;6.00;;;;;15.86;100.00;100256.72;4977792;28;63753;-64
2023/10/24 00:38:27;;;;;;;;;12.33;7.67;;;;;15.87;100.00;100253.19;4978688;28;46620;-66
2023/10/24 00:40:52;;;;;;;;;10.33;8.00;;;;;15.82;100.00;100248.81;4978197;28;45454;-65
2023/10/24 00:43:17;;;;;;;;;7.00;7.00;;;;;15.78;100.00;100247.16;4977972;28;63257;-65
2023/10/24 00:45:43;;;;;;;;;12.67;6.33;;;;;15.76;100.00;100243.63;4978735;28;45491;-64
2023/10/24 00:48:08;;;;;;;;;9.00;8.00;;;;;15.71;100.00;100247.28;4977100;28;69794;-65
2023/10/24 00:50:34;;;;;;;;;9.00;6.33;;;;;15.70;100.00;100237.50;4977226;28;45539;-67
2023/10/24 00:53:00;;;;;;;;;6.33;6.00;;;;;15.72;100.00;100245.50;4978182;28;59112;-67
2023/10/24 00:55:26;;;;;;;;;12.33;8.00;;;;;15.71;100.00;100241.03;4978503;28;45608;-65
2023/10/24 00:57:52;;;;;;;;;9.33;8.00;;;;;15.66;100.00;100243.81;4977472;28;69108;-66
2023/10/24 01:00:19;;;;;;;;;12.33;9.00;;;;;15.66;100.00;100248.28;4977320;28;45513;-65
2023/10/24 01:02:44;;;;;;;;;7.33;7.33;;;;;15.65;100.00;100243.84;4978378;28;45526;-65
2023/10/24 01:05:10;;;;;;;;;10.33;7.67;;;;;15.63;100.00;100238.56;4977665;28;59627;-65
2023/10/24 01:07:35;;;;;;;;;7.67;7.67;;;;;15.65;100.00;100231.41;4976363;28;66162;-66
2023/10/24 01:10:01;;;;;;;;;13.00;11.33;;;;;15.67;100.00;100234.06;4977458;28;66602;-66
2023/10/24 01:12:26;;;;;;;;;13.67;11.67;;;;;15.71;100.00;100231.31;4977853;28;59289;-66
2023/10/24 01:14:52;;;;;;;;;12.67;11.33;;;;;15.76;100.00;100238.31;4958477;28;45457;-64
2023/10/24 01:17:18;;;;;;;;;13.00;9.33;;;;;15.76;100.00;100235.63;4978405;28;46399;-65
2023/10/24 01:19:43;;;;;;;;;11.00;7.00;;;;;15.76;100.00;100231.19;4977924;28;45481;-64
2023/10/24 01:22:09;;;;;;;;;16.33;13.33;;;;;15.79;100.00;100232.94;4977335;28;56806;-65
2023/10/24 01:24:35;;;;;;;;;13.67;10.67;;;;;15.81;100.00;100241.75;4977305;28;59030;-67
2023/10/24 01:27:00;;;;;;;;;13.67;13.00;;;;;15.81;100.00;100241.75;4976906;28;71492;-67
2023/10/24 01:29:25;;;;;;;;;10.00;7.33;;;;;15.85;100.00;100248.78;4976990;28;62035;-64
2023/10/24 01:31:51;;;;;;;;;8.00;8.00;;;;;15.86;100.00;100246.06;4976069;28;45656;-65
2023/10/24 01:34:16;;;;;;;;;12.00;8.67;;;;;15.85;100.00;100248.78;4977960;28;45481;-66
2023/10/24 01:36:42;;;;;;;;;14.67;13.67;;;;;15.90;100.00;100254.88;4976817;28;69121;-65
2023/10/24 01:39:07;;;;;;;;;14.33;12.67;;;;;15.89;100.00;100242.50;4976762;28;63876;-64
2023/10/24 01:41:33;;;;;;;;;12.67;8.33;;;;;15.87;100.00;100252.28;4977965;28;45338;-65
2023/10/24 01:43:58;;;;;;;;;8.33;8.33;;;;;15.88;100.00;100246.06;4978002;28;45363;-65
2023/10/24 01:46:23;;;;;;;;;11.67;10.00;;;;;15.90;100.00;100247.78;4976407;28;68785;-66
2023/10/24 01:48:49;;;;;;;;;10.33;10.33;;;;;15.91;100.00;100241.53;4976699;28;66505;-65
2023/10/24 01:51:14;;;;;;;;;14.00;14.00;;;;;15.94;100.00;100228.16;4976674;28;45380;-66
2023/10/24 01:53:39;;;;;;;;;11.33;11.33;;;;;15.95;100.00;100227.25;4977742;28;45498;-65
2023/10/24 01:56:05;;;;;;;;;15.33;13.67;;;;;15.95;100.00;100229.91;4976679;28;68569;-65
2023/10/24 01:58:30;;;;;;;;;14.67;12.00;;;;;15.94;100.00;100227.28;4976923;28;45240;-66
2023/10/24 02:00:55;;;;;;;;;15.67;13.33;;;;;15.96;100.00;100229.00;4976781;28;62867;-64
2023/10/24 02:03:21;;;;;;;;;12.33;11.00;;;;;15.99;100.00;100222.75;4977127;28;50914;-67
2023/10/24 02:05:46;;;;;;;;;14.67;13.33;;;;;16.02;100.00;100230.66;4976262;28;69892;-64
2023/10/24 02:08:12;;;;;;;;;12.00;12.00;;;;;16.01;100.00;100217.38;4977338;28;45505;-65
2023/10/24 02:10:38;;;;;;;;;15.33;12.00;;;;;16.05;100.00;100227.06;4976163;28;45395;-64
2023/10/24 02:13:03;;;;;;;;;11.00;11.00;;;;;16.08;100.00;100229.66;4977408;28;45517;-65
2023/10/24 02:15:28;;;;;;;;;13.67;11.33;;;;;16.06;100.00;100232.34;4976456;28;68625;-65
2023/10/24 02:17:54;;;;;;;;;14.00;10.67;;;;;16.09;100.00;100226.09;4976790;28;55713;-65
2023/10/24 02:20:19;;;;;;;;;13.67;11.67;;;;;16.09;100.00;100215.44;4976447;28;57986;-67
2023/10/24 02:22:51;;;;;;;;;14.00;11.00;;;;;16.10;100.00;100220.75;4976740;28;48026;-64
2023/10/24 02:25:16;;;;;;;;;11.33;11.33;;;;;16.10;100.00;100215.41;4974183;28;45703;-67
2023/10/24 02:27:41;;;;;;;;;12.00;10.33;;;;;16.09;100.00;100219.00;4976233;28;71275;-66
2023/10/24 02:30:07;;;;;;;;;10.00;10.00;;;;;16.08;100.00;100219.00;4976545;28;45263;-66
2023/10/24 02:32:33;;;;;;;;;10.33;10.33;;;;;16.09;100.00;100228.78;4974223;28;45311;-65
2023/10/24 02:34:58;;;;;;;;;11.33;9.67;;;;;16.11;100.00;100226.94;4976727;28;46693;-65
2023/10/24 02:37:23;;;;;;;;;14.67;13.33;;;;;16.13;100.00;100218.00;4976523;28;45442;-67
2023/10/24 02:39:49;;;;;;;;;11.67;10.00;;;;;16.12;100.00;100218.91;4976067;28;63778;-65
2023/10/24 02:42:14;;;;;;;;;14.67;8.67;;;;;16.12;100.00;100226.03;4976588;28;45443;-64
2023/10/24 02:44:39;;;;;;;;;10.33;10.33;;;;;16.12;100.00;100213.56;4975587;28;45807;-65
2023/10/24 02:47:05;;;;;;;;;16.67;13.67;;;;;16.10;100.00;100217.19;4975865;28;68011;-67
2023/10/24 02:49:32;;;;;;;;;13.33;9.33;;;;;16.12;100.00;100220.69;4976799;28;45450;-65
2023/10/24 02:51:57;;;;;;;;;11.67;11.00;;;;;16.09;100.00;100215.44;4977034;28;45481;-66
2023/10/24 02:54:23;;;;;;;;;13.00;11.67;;;;;16.08;100.00;100211.88;4975779;28;70078;-65
2023/10/24 02:56:49;;;;;;;;;14.67;13.00;;;;;16.08;100.00;100211.88;4976471;28;45289;-65
2023/10/24 02:59:14;;;;;;;;;15.00;10.67;;;;;16.08;100.00;100214.53;4976786;28;45366;-65
2023/10/24 03:01:39;;;;;;;;;11.33;10.00;;;;;16.09;100.00;100200.34;4976580;28;45390;-65
2023/10/24 03:04:04;;;;;;;;;14.00;12.67;;;;;16.09;100.00;100205.69;4976035;28;66384;-67
2023/10/24 03:06:30;;;;;;;;;15.67;12.00;;;;;16.09;100.00;100197.69;4975827;28;45501;-64
2023/10/24 03:08:55;;;;;;;;;15.00;14.33;;;;;16.11;100.00;100202.97;4975812;28;62555;-65
2023/10/24 03:11:24;;;;;;;;;10.33;10.33;;;;;16.12;100.00;100199.38;4976385;28;45378;-66
2023/10/24 03:13:52;;;;;;;;;9.67;9.67;;;;;16.15;100.00;100204.66;4976286;28;46571;-65
2023/10/24 03:16:17;;;;;;;;;9.00;9.00;;;;;16.14;100.00;100206.47;4976185;28;45532;-65
2023/10/24 03:18:43;;;;;;;;;9.67;8.33;;;;;16.14;100.00;100198.47;4976412;28;45300;-65
2023/10/24 03:21:08;;;;;;;;;12.00;12.00;;;;;16.21;100.00;100201.84;4976780;28;45320;-66
2023/10/24 03:23:33;;;;;;;;;14.00;11.67;;;;;16.23;100.00;100206.22;4975823;28;46570;-66
2023/10/24 03:25:59;;;;;;;;;10.67;8.67;;;;;16.26;100.00;100205.31;4975371;28;59360;-64
2023/10/24 03:28:25;;;;;;;;;11.00;9.00;;;;;16.27;100.00;100200.84;4976461;28;45450;-65
2023/10/24 03:31:00;;;;;;;;;9.33;7.67;;;;;16.28;100.00;100205.25;4973918;28;62538;-64
2023/10/24 03:33:25;;;;;;;;;9.00;9.00;;;;;16.27;100.00;100201.72;4976299;28;46947;-66
2023/10/24 03:35:50;;;;;;;;;9.00;8.67;;;;;16.30;100.00;100203.41;4975652;28;63581;-65
2023/10/24 03:38:16;;;;;;;;;10.00;10.00;;;;;16.29;100.00;100205.22;4975233;28;64589;-65
2023/10/24 03:40:41;;;;;;;;;8.67;8.67;;;;;16.31;100.00;100207.88;4975298;28;63397;-64
2023/10/24 03:43:06;;;;;;;;;8.33;8.33;;;;;16.32;100.00;100214.94;4975904;28;54158;-65
2023/10/24 03:45:32;;;;;;;;;10.00;10.00;;;;;16.32;100.00;100215.81;4978475;28;64950;-65
2023/10/24 03:47:57;;;;;;;;;6.67;6.67;;;;;16.30;100.00;100220.31;4979685;28;45437;-66
2023/10/24 03:50:22;;;;;;;;;9.33;9.00;;;;;16.32;100.00;100209.63;4979130;28;49125;-65
2023/10/24 03:52:48;;;;;;;;;8.67;8.67;;;;;16.35;100.00;100214.84;4979144;28;46010;-65
2023/10/24 03:55:14;;;;;;;;;9.00;8.00;;;;;16.35;100.00;100210.44;4979560;28;45465;-65
2023/10/24 03:57:39;;;;;;;;;8.33;7.33;;;;;16.33;100.00;100217.56;4978585;28;63152;-66
2023/10/24 04:00:08;;;;;;;;;7.67;7.67;;;;;16.34;100.00;100215.78;4979278;28;45597;-64
2023/10/24 04:02:33;;;;;;;;;8.67;7.67;;;;;16.31;100.00;100206.06;4978744;28;46754;-65
2023/10/24 04:04:58;;;;;;;;;11.67;10.67;;;;;16.35;100.00;100212.19;4978288;28;58610;-66
2023/10/24 04:07:24;;;;;;;;;8.67;8.67;;;;;16.32;100.00;100205.16;4978733;28;62028;-64
2023/10/24 04:09:49;;;;;;;;;9.00;7.00;;;;;16.32;100.00;100206.94;4979125;28;45485;-66
2023/10/24 04:12:15;;;;;;;;;7.33;6.00;;;;;16.29;100.00;100207.88;4978484;28;67422;-67
2023/10/24 04:14:40;;;;;;;;;9.00;6.00;;;;;16.26;100.00;100199.97;4977786;28;69401;-66
2023/10/24 04:17:05;;;;;;;;;9.33;8.00;;;;;16.31;100.00;100208.75;4978675;28;64538;-66
2023/10/24 04:19:31;;;;;;;;;8.33;8.00;;;;;16.33;100.00;100203.38;4979180;28;46706;-64
2023/10/24 04:21:56;;;;;;;;;7.00;7.00;;;;;16.32;100.00;100198.97;4976182;28;68516;-66
2023/10/24 04:24:21;;;;;;;;;8.67;7.00;;;;;16.29;100.00;100202.53;4978775;28;45450;-65
2023/10/24 04:26:47;;;;;;;;;8.67;6.67;;;;;16.31;100.00;100194.53;4977310;28;45505;-64
2023/10/24 04:29:12;;;;;;;;;7.00;6.00;;;;;16.32;100.00;100197.16;4978937;28;45587;-64
2023/10/24 04:31:37;;;;;;;;;7.33;6.00;;;;;16.29;100.00;100205.22;4979973;28;54861;-65
2023/10/24 04:34:04;;;;;;;;;12.00;8.00;;;;;16.23;100.00;100208.88;4978477;28;45372;-65
2023/10/24 04:36:30;;;;;;;;;5.00;5.00;;;;;16.24;100.00;100208.00;4978891;28;45467;-65
2023/10/24 04:38:55;;;;;;;;;8.33;5.67;;;;;16.22;100.00;100198.28;4978462;28;45447;-65
2023/10/24 04:41:20;;;;;;;;;6.00;6.00;;;;;16.21;100.00;100201.84;4979445;28;46408;-67
2023/10/24 04:43:46;;;;;;;;;9.00;7.00;;;;;16.20;100.00;100202.78;4978722;28;45316;-65
2023/10/24 04:46:11;;;;;;;;;7.00;5.67;;;;;16.19;100.00;100209.00;4978608;28;61043;-65
2023/10/24 04:48:37;;;;;;;;;6.00;6.00;;;;;16.18;100.00;100217.91;4978535;28;45449;-65
2023/10/24 04:51:10;;;;;;;;;8.67;6.00;;;;;16.18;100.00;100210.78;4978370;28;47511;-64
2023/10/24 04:53:35;;;;;;;;;6.67;6.00;;;;;16.19;100.00;100198.34;4978395;28;45462;-65
2023/10/24 04:56:01;;;;;;;;;5.33;5.33;;;;;16.15;100.00;100178.91;4977240;28;60110;-65
2023/10/24 04:58:26;;;;;;;;;9.00;8.00;;;;;16.12;100.00;100183.41;4977492;28;62316;-65
2023/10/24 05:00:52;;;;;;;;;6.00;6.00;;;;;16.09;100.00;100195.03;4979820;28;66954;-66
2023/10/24 05:03:18;;;;;;;;;7.00;6.00;;;;;16.08;100.00;100203.91;4978032;28;45399;-65
2023/10/24 05:05:43;;;;;;;;;5.00;5.00;;;;;16.09;100.00;100199.47;4977498;28;59689;-66
2023/10/24 05:08:10;;;;;;;;;7.00;6.00;;;;;16.06;100.00;100195.06;4977924;28;57707;-66
2023/10/24 05:10:35;;;;;;;;;6.00;6.00;;;;;16.06;100.00;100194.19;4977861;28;45941;-65
2023/10/24 05:13:01;;;;;;;;;4.33;3.00;;;;;16.04;100.00;100196.91;4978090;28;45407;-64
2023/10/24 05:15:26;;;;;;;;;4.00;4.00;;;;;16.06;100.00;100195.06;4978710;28;45301;-64
2023/10/24 05:17:52;;;;;;;;;4.00;4.00;;;;;16.09;100.00;100184.38;4977490;28;53931;-66
2023/10/24 05:20:17;;;;;;;;;4.00;4.00;;;;;16.12;100.00;100197.59;4971560;28;45644;-67
2023/10/24 05:22:42;;;;;;;;;3.00;3.00;;;;;16.13;100.00;100187.81;4973853;28;45498;-64
2023/10/24 05:25:08;;;;;;;;;4.33;3.00;;;;;16.15;100.00;100194.88;4977079;28;61233;-66
2023/10/24 05:27:33;;;;;;;;;3.67;3.67;;;;;16.12;100.00;100191.41;4977795;28;45615;-64
2023/10/24 05:29:59;;;;;;;;;4.00;4.00;;;;;16.14;100.00;100195.81;4978643;28;46534;-65
2023/10/24 05:32:24;;;;;;;;;5.00;5.00;;;;;16.17;100.00;100187.72;4977851;28;45288;-66
2023/10/24 05:34:49;;;;;;;;;5.00;3.33;;;;;16.19;100.00;100180.59;4975752;28;62469;-65
2023/10/24 05:37:15;;;;;;;;;5.00;3.00;;;;;16.20;100.00;100185.00;4976694;28;61350;-66
2023/10/24 05:39:40;;;;;;;;;5.00;5.00;;;;;16.21;100.00;100184.09;4977125;28;60483;-65
2023/10/24 05:42:05;;;;;;;;;4.00;4.00;;;;;16.21;100.00;100177.88;4976704;28;68408;-66
2023/10/24 05:44:31;;;;;;;;;7.33;4.67;;;;;16.22;100.00;100190.28;4977320;28;45358;-66
2023/10/24 05:46:56;;;;;;;;;4.00;4.00;;;;;16.21;100.00;100192.06;4976537;28;63467;-66
2023/10/24 05:49:21;;;;;;;;;5.00;4.00;;;;;16.24;100.00;100193.78;4976698;28;66151;-66
2023/10/24 05:51:47;;;;;;;;;6.00;4.33;;;;;16.23;100.00;100198.22;4977711;28;45372;-65
2023/10/24 05:54:12;;;;;;;;;4.67;4.33;;;;;16.25;100.00;100198.22;4977557;28;45438;-65
2023/10/24 05:56:38;;;;;;;;;7.00;5.67;;;;;16.27;100.00;100207.03;4977567;28;45318;-66
2023/10/24 05:59:03;;;;;;;;;4.00;4.00;;;;;16.28;100.00;100205.25;4976388;28;47201;-66
2023/10/24 06:01:28;;;;;;;;;5.00;5.00;;;;;16.28;100.00;100198.13;4976713;28;45427;-67
2023/10/24 06:03:54;;;;;;;;;5.00;5.00;;;;;16.27;100.00;100196.38;4976780;28;57806;-65
2023/10/24 06:06:20;;;;;;;;;5.00;5.00;;;;;16.26;100.00;100197.31;4976430;28;62303;-65
2023/10/24 06:08:45;;;;;;;;;3.00;3.00;;;;;16.28;100.00;100205.25;4975578;28;46627;-65
2023/10/24 06:11:10;;;;;;;;;5.33;4.00;;;;;16.27;100.00;100211.50;4975100;28;61178;-67
2023/10/24 06:13:36;;;;;;;;;5.33;5.33;;;;;16.27;100.00;100220.38;4977170;28;45450;-67
2023/10/24 06:16:14;;;;;;;;;4.33;4.33;;;;;16.28;100.00;100221.25;4976178;28;61554;-65
2023/10/24 06:18:39;;;;;;;;;6.00;6.00;;;;;16.24;100.00;100221.31;4972800;28;46188;-66
2023/10/24 06:21:05;;;;;;;;;4.67;4.67;;;;;16.22;100.00;100211.59;4976358;28;45532;-65
2023/10/24 06:23:31;;;;;;;;;4.67;4.67;;;;;16.19;100.00;100217.88;4976753;28;45467;-67
2023/10/24 06:25:57;;;;;;;;;7.00;7.00;;;;;16.18;100.00;100224.09;4976169;28;45454;-66
2023/10/24 06:28:23;;;;;;;;;5.00;4.00;;;;;16.17;100.00;100230.34;4965617;28;45774;-65
2023/10/24 06:30:51;;;;;;;;;6.00;6.00;;;;;16.16;100.00;100228.59;5098511;22;45684;-66
2023/10/24 06:33:16;;;;;;;;;5.00;5.00;;;;;16.14;100.00;100235.75;4989922;28;45559;-69
2023/10/24 06:35:42;;;;;;;;;5.67;5.67;;;;;16.13;100.00;100233.09;4967551;28;60069;-66
2023/10/24 06:38:08;;;;;;;;;4.67;4.67;;;;;16.12;100.00;100237.56;4975003;28;46312;-66
2023/10/24 06:40:33;;;;;;;;;6.00;6.00;;;;;16.09;100.00;100236.75;4974233;28;45400;-66
2023/10/24 06:42:59;;;;;;;;;8.00;7.00;;;;;16.13;100.00;100238.44;4972759;28;63445;-67
2023/10/24 06:45:24;;;;;;;;;5.67;5.67;;;;;16.13;100.00;100239.28;4973412;28;46241;-66
2023/10/24 06:47:49;;;;;;;;;6.00;6.00;;;;;16.09;100.00;100234.97;4969750;28;68542;-65
2023/10/24 06:50:15;;;;;;;;;7.00;7.00;;;;;16.08;100.00;100233.19;4972100;28;45509;-65
2023/10/24 06:52:42;;;;;;;;;7.00;7.00;;;;;16.09;100.00;100237.63;4975261;28;45558;-65
2023/10/24 06:55:08;;;;;;;;;7.33;6.00;;;;;16.07;100.00;100249.22;4972408;28;45631;-66
2023/10/24 06:57:33;;;;;;;;;5.00;5.00;;;;;16.07;100.00;100257.19;4973696;28;46709;-64
2023/10/24 06:59:59;;;;;;;;;6.00;6.00;;;;;16.05;100.00;100259.91;4973315;28;67060;-65
2023/10/24 07:02:24;;;;;;;;;5.33;5.00;;;;;16.01;100.00;100257.34;4973857;28;52980;-66
2023/10/24 07:04:49;;;;;;;;;5.33;5.00;;;;;15.98;100.00;100258.28;4970529;28;63479;-67
2023/10/24 07:07:15;;;;;;;;;5.67;5.67;;;;;15.91;100.00;100262.84;4973610;28;58559;-65
2023/10/24 07:09:40;;;;;;;;;6.00;4.00;;;;;15.88;100.00;100270.03;4971317;28;64713;-67
2023/10/24 07:12:05;;;;;;;;;6.33;5.33;;;;;15.81;100.00;100261.25;4968945;28;60413;-66
2023/10/24 07:14:31;;;;;;;;;6.67;5.33;;;;;15.76;100.00;100264.91;4962748;28;45665;-66
2023/10/24 07:16:56;;;;;;;;;7.33;6.00;;;;;15.70;100.00;100271.25;4967958;28;46600;-66
2023/10/24 07:19:21;;;;;;;;;7.00;5.33;;;;;15.66;100.00;100278.44;4961890;28;65110;-65
2023/10/24 07:21:47;;;;;;;;;7.00;5.00;;;;;15.68;100.00;100289.91;4971528;28;53999;-64
2023/10/24 07:24:12;;;;;;;;;9.00;5.00;;;;;15.65;100.00;100297.94;4964511;28;47695;-67
2023/10/24 07:26:38;;;;;;;;;9.00;5.00;;;;;15.64;100.00;100295.31;4970293;28;45901;-66
2023/10/24 07:29:03;;;;;;;;;5.00;4.00;;;;;15.63;100.00;100297.09;4968573;28;45505;-65
2023/10/24 07:31:28;;;;;;;;;7.00;6.00;;;;;15.60;100.00;100297.09;4970562;28;45496;-66
2023/10/24 07:33:54;;;;;;;;;5.00;5.00;;;;;15.56;100.00;100295.44;4968697;28;61410;-66
2023/10/24 07:36:19;;;;;;;;;5.33;4.00;;;;;15.52;100.00;100290.19;4969099;28;67914;-65
2023/10/24 07:38:44;;;;;;;;;5.00;5.00;;;;;15.50;100.00;100295.53;4970477;28;61894;-65
2023/10/24 07:41:13;;;;;;;;;3.00;3.00;;;;;15.50;100.00;100291.97;4970082;28;46896;-65
2023/10/24 07:43:38;;;;;;;;;5.67;4.67;;;;;15.46;100.00;100300.03;4967926;28;45518;-65
2023/10/24 07:46:03;;;;;;;;;3.00;3.00;;;;;15.47;100.00;100295.59;4971639;28;45562;-67
2023/10/24 07:48:29;;;;;;;;;3.33;3.33;;;;;15.46;100.00;100292.06;4964265;28;45562;-66
2023/10/24 07:50:56;;;;;;;;;3.00;3.00;;;;;15.48;100.00;100296.47;4966705;28;61794;-65
2023/10/24 07:53:22;;;;;;;;;3.33;3.33;;;;;15.44;100.00;100301.81;4971657;28;45786;-66
2023/10/24 07:55:48;;;;;;;;;6.33;4.00;;;;;15.46;100.00;100304.47;4966849;28;46720;-67
2023/10/24 07:58:16;;;;;;;;;3.33;2.00;;;;;15.46;100.00;100301.81;4971689;28;45585;-66
2023/10/24 08:00:42;;;;;;;;;4.00;3.33;;;;;15.45;100.00;100303.59;4966626;28;45702;-65
2023/10/24 08:03:08;;;;;;;;;3.00;2.00;;;;;15.45;100.00;100303.59;4971272;28;45796;-64
2023/10/24 08:05:33;;;;;;;;;3.00;3.00;;;;;15.43;100.00;100299.19;4971472;28;64871;-67
2023/10/24 08:07:58;;;;;;;;;5.33;2.67;;;;;15.43;100.00;100294.75;4971797;28;64756;-67
2023/10/24 08:10:24;;;;;;;;;5.00;3.67;;;;;15.47;100.00;100306.22;4968950;28;58022;-67
2023/10/24 08:12:49;;;;;;;;;2.00;2.00;;;;;15.46;100.00;100305.34;4971842;28;64903;-65
2023/10/24 08:15:14;;;;;;;;;4.67;3.00;;;;;15.46;100.00;100301.81;4972141;28;66427;-65
2023/10/24 08:17:40;;;;;;;;;4.33;3.00;;;;;15.45;100.00;100302.72;4973310;28;62942;-65
2023/10/24 08:20:06;;;;;;;;;3.00;1.00;;;;;15.46;100.00;100305.34;4973316;28;53373;-66
2023/10/24 08:22:31;;;;;;;;;5.33;2.33;;;;;15.49;100.00;100315.06;4969388;28;45330;-65
2023/10/24 08:24:57;;;;;;;;;8.33;3.00;;;;;15.50;100.00;100314.16;4973093;28;46130;-65
2023/10/24 08:27:23;;;;;;;;;3.00;2.00;;;;;15.55;100.00;100309.63;4968640;28;45510;-66
2023/10/24 08:29:48;;;;;;;;;2.33;2.33;;;;;15.58;100.00;100316.69;4968721;28;45754;-66
2023/10/24 08:32:13;;;;;;;;;1.00;1.00;;;;;15.56;100.00;100311.41;4972363;28;61996;-67
2023/10/24 08:34:39;;;;;;;;;3.00;1.67;;;;;15.60;100.00;100301.56;4974216;28;58387;-67
2023/10/24 08:37:05;;;;;;;;;5.00;2.00;;;;;15.58;100.00;100298.94;4976011;28;64186;-66
2023/10/24 08:39:30;;;;;;;;;6.00;2.33;;;;;15.66;100.00;100306.81;4977301;28;45437;-65
2023/10/24 08:41:59;;;;;;;;;3.00;3.00;;;;;15.65;100.00;100311.25;4974528;28;61061;-65
2023/10/24 08:44:26;;;;;;;;;2.00;1.33;;;;;15.69;100.00;100317.41;4977606;28;45926;-65
2023/10/24 08:46:52;;;;;;;;;1.00;1.00;;;;;15.69;100.00;100317.41;4973849;28;45427;-65
2023/10/24 08:49:18;;;;;;;;;2.33;1.00;;;;;15.70;100.00;100317.38;4976502;28;45305;-65
2023/10/24 08:51:45;;;;;;;;;1.00;1.00;;;;;15.72;100.00;100312.03;4975220;28;45845;-65
2023/10/24 08:54:10;;;;;;;;;1.00;0.00;;;;;15.71;100.00;100316.47;4987114;28;47318;-65
2023/10/24 08:56:37;;;;;;;;;2.33;1.00;;;;;15.74;100.00;100310.22;4970276;28;45573;-67
2023/10/24 08:59:04;;;;;;;;;3.00;1.00;;;;;15.75;100.00;100309.28;4989737;28;45506;-65
2023/10/24 09:01:30;;;;;;;;;1.00;1.00;;;;;15.71;100.00;100313.81;4972166;28;45509;-67
2023/10/24 09:03:55;;;;;;;;;1.00;1.00;;;;;15.76;100.00;100307.50;4974354;28;53476;-66
2023/10/24 09:06:22;;;;;;;;;1.67;1.00;;;;;15.79;100.00;100319.00;4973586;28;66119;-66
2023/10/24 09:08:48;;;;;;;;;2.00;2.00;;;;;15.81;100.00;100322.50;4976021;28;45514;-66
2023/10/24 09:11:14;;;;;;;;;1.00;1.00;;;;;15.81;100.00;100326.94;4973668;28;45557;-66
2023/10/24 09:13:39;;;;;;;;;4.33;1.00;;;;;15.85;100.00;100320.66;4977137;28;45684;-66
2023/10/24 09:16:06;;;;;;;;;2.33;2.00;;;;;15.92;100.00;100320.50;4976783;28;45398;-66
2023/10/24 09:18:34;;;;;;;;;1.00;1.00;;;;;15.95;100.00;100322.25;4976968;28;45547;-67
2023/10/24 09:20:59;;;;;;;;;0.33;0.00;;;;;15.92;100.00;100327.59;4977379;28;45588;-65
2023/10/24 09:23:24;;;;;;;;;4.00;1.00;;;;;15.92;100.00;100327.59;4975370;28;69775;-65
2023/10/24 09:25:50;;;;;;;;;2.00;1.00;;;;;15.96;100.00;100329.31;4974590;28;63455;-67
2023/10/24 09:28:21;;;;;;;;;1.00;1.00;;;;;15.98;100.00;100330.19;4972474;28;60662;-65
2023/10/24 09:30:47;;;;;;;;;1.00;1.00;;;;;16.01;100.00;100331.91;4974943;28;45575;-67
2023/10/24 09:33:12;;;;;;;;;0.00;0.00;;;;;16.03;100.00;100333.59;4974145;28;46784;-66
2023/10/24 09:35:38;;;;;;;;;1.00;1.00;;;;;16.04;100.00;100330.06;4976448;28;45348;-65
2023/10/24 09:38:06;;;;;;;;;4.00;1.00;;;;;16.12;100.00;100329.91;4974539;28;45481;-65
2023/10/24 09:40:37;;;;;;;;;2.67;1.00;;;;;16.17;100.00;100328.03;4976709;28;45474;-65
2023/10/24 09:43:16;;;;;;;;;3.67;1.00;;;;;16.26;100.00;100332.31;4976605;28;46697;-65
2023/10/24 09:45:44;;;;;;;;;1.00;1.00;;;;;16.27;100.00;100332.25;4972579;28;45457;-64
2023/10/24 09:48:10;;;;;;;;;1.67;1.00;;;;;16.35;100.00;100329.41;4976193;28;45476;-64
2023/10/24 09:50:38;;;;;;;;;1.00;1.00;;;;;16.38;100.00;100326.72;4957601;28;45575;-66
2023/10/24 09:53:04;;;;;;;;;0.00;0.00;;;;;16.40;100.00;100319.53;4973048;28;46724;-68
2023/10/24 09:55:30;;;;;;;;;1.67;1.00;;;;;16.47;100.00;100313.19;4976211;28;45458;-66
2023/10/24 09:57:58;;;;;;;;;1.00;0.67;;;;;16.51;100.00;100309.53;4970332;28;45470;-65
2023/10/24 10:00:24;;;;;;;;;2.00;0.00;;;;;16.51;100.00;100309.53;4972254;28;45489;-65
2023/10/24 10:02:50;;;;;;;;;1.00;0.67;;;;;16.51;100.00;100309.53;4973538;28;45634;-64
2023/10/24 10:05:16;;;;;;;;;1.00;1.00;;;;;16.54;100.00;100309.47;4973734;28;45684;-64
2023/10/24 10:07:42;;;;;;;;;6.00;0.33;;;;;16.60;100.00;100305.81;4959066;28;45385;-65
2023/10/24 10:10:10;;;;;;;;;3.00;1.00;;;;;16.63;100.00;100308.41;4974746;28;45624;-65
2023/10/24 10:12:36;;;;;;;;;0.00;0.00;;;;;16.61;100.00;100308.41;4974793;28;45837;-66
2023/10/24 10:15:30;;;;;;;;;2.67;0.67;;;;;16.62;100.00;100311.97;4962452;28;68939;-65
2023/10/24 10:18:10;;;;;;;;;1.00;1.00;;;;;16.64;100.00;100304.81;4974744;28;45653;-64
2023/10/24 10:21:04;;;;;;;;;3.00;1.00;;;;;16.66;100.00;100301.19;4971909;28;45483;-66
2023/10/24 10:23:51;;;;;;;;;2.00;0.00;;;;;16.69;100.00;100301.16;4971853;28;46714;-64
2023/10/24 10:26:44;;;;;;;;;2.00;1.00;;;;;16.72;100.00;100306.47;4974155;28;45331;-67
2023/10/24 10:29:23;;;;;;;;;1.00;1.00;;;;;16.76;100.00;100304.56;4973385;28;45509;-66
2023/10/24 10:31:51;;;;;;;;;0.00;0.00;;;;;16.80;100.00;100306.28;4975122;28;45744;-65
2023/10/24 10:34:16;;;;;;;;;0.00;0.00;;;;;16.81;100.00;100297.34;4969211;28;45981;-63
2023/10/24 10:36:54;;;;;;;;;1.00;1.00;;;;;16.87;100.00;100301.66;4974819;28;45446;-64
2023/10/24 10:39:19;;;;;;;;;1.00;1.00;;;;;16.87;100.00;100307.88;4975444;28;45532;-64
2023/10/24 10:41:45;;;;;;;;;2.00;1.00;;;;;16.85;100.00;100299.03;4970960;28;49210;-63
2023/10/24 10:44:32;;;;;;;;;0.33;0.33;;;;;16.91;100.00;100293.56;4974787;28;46712;-66
2023/10/24 10:47:01;;;;;;;;;1.67;1.00;;;;;16.92;100.00;100289.09;4964491;28;45473;-66
2023/10/24 10:49:38;;;;;;;;;2.67;0.00;;;;;16.98;100.00;100286.28;4974200;28;46426;-64
2023/10/24 10:52:07;;;;;;;;;0.00;0.00;;;;;17.04;100.00;100275.47;4975075;28;45573;-67
2023/10/24 10:54:55;;;;;;;;;6.00;0.00;;;;;17.06;100.00;100264.78;4974979;28;46472;-66
2023/10/24 10:57:27;;;;;;;;;1.33;1.33;;;;;17.08;100.00;100268.28;4985715;28;45553;-66
2023/10/24 11:00:04;;;;;;;;;2.00;0.33;;;;;17.12;100.00;100272.63;4972888;28;46341;-65
2023/10/24 11:02:48;;;;;;;;;2.00;0.00;;;;;17.13;100.00;100272.56;4973240;28;45573;-65
2023/10/24 11:05:35;;;;;;;;;1.00;1.00;;;;;17.20;100.00;100275.97;4966329;28;45868;-67
2023/10/24 11:08:02;;;;;;;;;2.00;0.33;;;;;17.24;100.00;100281.19;4973786;28;45576;-65
2023/10/24 11:10:48;;;;;;;;;1.00;1.00;;;;;17.39;100.00;100279.91;4975327;28;45430;-65
2023/10/24 11:13:53;;;;;;;;;1.33;1.00;;;;;17.47;100.00;100282.38;4982848;28;45587;-65